createdAt,value
2019-04-25T00:00:13.401Z,10.70
2019-04-25T00:02:42.686Z,10.70
2019-04-25T00:05:11.401Z,10.70
2019-04-25T00:07:38.686Z,10.70
2019-04-25T00:10:05.489Z,10.70
2019-04-25T00:12:32.067Z,10.70
2019-04-25T00:14:58.704Z,10.70
2019-04-25T00:17:26.233Z,10.70
2019-04-25T00:19:52.985Z,10.70
2019-04-25T00:22:26.894Z,10.70
2019-04-25T00:24:55.207Z,10.70
2019-04-25T00:27:23.653Z,10.70
2019-04-25T00:29:51.621Z,10.70
2019-04-25T00:32:18.161Z,10.70
2019-04-25T00:34:45.637Z,10.60
2019-04-25T00:37:14.225Z,10.60
2019-04-25T00:39:43.495Z,10.60
2019-04-25T00:42:09.627Z,10.60
2019-04-25T00:44:36.466Z,10.50
2019-04-25T00:47:04.955Z,10.50
2019-04-25T00:49:32.217Z,10.50
2019-04-25T00:51:58.646Z,10.50
2019-04-25T00:54:25.235Z,10.40
2019-04-25T00:56:52.780Z,10.50
2019-04-25T00:59:24.725Z,10.50
2019-04-25T01:01:55.758Z,10.50
2019-04-25T01:04:23.023Z,10.40
2019-04-25T01:06:49.682Z,10.40
2019-04-25T01:09:17.469Z,10.40
2019-04-25T01:11:44.340Z,10.50
2019-04-25T01:14:11.941Z,10.40
2019-04-25T01:16:38.813Z,10.40
2019-04-25T01:19:05.428Z,10.40
2019-04-25T01:21:31.877Z,10.40
2019-04-25T01:23:58.744Z,10.40
2019-04-25T01:26:25.306Z,10.40
2019-04-25T01:28:51.921Z,10.30
2019-04-25T01:31:20.454Z,10.40
2019-04-25T01:33:46.912Z,10.40
2019-04-25T01:36:16.198Z,10.30
2019-04-25T01:38:50.979Z,10.30
2019-04-25T01:41:31.131Z,10.30
2019-04-25T01:43:59.767Z,10.30
2019-04-25T01:46:26.470Z,10.30
2019-04-25T01:48:54.482Z,10.20
2019-04-25T01:51:21.148Z,10.20
2019-04-25T01:53:48.988Z,10.20
2019-04-25T01:56:15.531Z,10.20
2019-04-25T01:58:43.614Z,10.20
2019-04-25T02:01:10.465Z,10.20
2019-04-25T02:03:36.940Z,10.20
2019-04-25T02:06:04.782Z,10.20
2019-04-25T02:08:31.733Z,10.20
2019-04-25T02:11:00.012Z,10.10
2019-04-25T02:13:26.524Z,10.10
2019-04-25T02:15:54.765Z,10.10
2019-04-25T02:18:21.390Z,10.10
2019-04-25T02:20:47.912Z,10.10
2019-04-25T02:23:14.647Z,10.00
2019-04-25T02:25:41.093Z,10.00
2019-04-25T02:28:07.665Z,10.00
2019-04-25T02:30:35.594Z,10.00
2019-04-25T02:33:07.339Z,9.90
2019-04-25T02:35:30.732Z,9.90
2019-04-25T02:38:00.526Z,9.90
2019-04-25T02:40:25.778Z,9.90
2019-04-25T02:42:55.813Z,9.90
2019-04-25T02:45:37.309Z,9.80
2019-04-25T02:48:09.329Z,9.80
2019-04-25T02:50:44.106Z,9.80
2019-04-25T02:53:29.775Z,9.70
2019-04-25T02:55:56.863Z,9.70
2019-04-25T02:58:24.373Z,9.60
2019-04-25T03:00:59.717Z,9.60
2019-04-25T03:03:19.282Z,9.60
2019-04-25T03:05:47.723Z,9.60
2019-04-25T03:08:16.605Z,9.60
2019-04-25T03:10:44.302Z,9.60
2019-04-25T03:13:12.056Z,9.60
2019-04-25T03:15:39.208Z,9.50
2019-04-25T03:18:11.904Z,9.50
2019-04-25T03:20:46.944Z,9.60
2019-04-25T03:23:18.409Z,9.50
2019-04-25T03:25:44.855Z,9.50
2019-04-25T03:28:11.331Z,9.60
2019-04-25T03:30:37.807Z,9.50
2019-04-25T03:33:09.628Z,9.50
2019-04-25T03:35:33.233Z,9.40
2019-04-25T03:38:01.125Z,9.50
2019-04-25T03:40:27.523Z,9.50
2019-04-25T03:42:53.983Z,9.40
2019-04-25T03:45:20.376Z,9.50
2019-04-25T03:47:46.882Z,9.40
2019-04-25T03:50:13.982Z,9.40
2019-04-25T03:52:43.592Z,9.50
2019-04-25T03:55:10.253Z,9.50
2019-04-25T03:57:36.625Z,9.40
2019-04-25T04:00:06.186Z,9.50
2019-04-25T04:02:34.407Z,9.50
2019-04-25T04:05:01.018Z,9.60
2019-04-25T04:07:27.494Z,9.50
2019-04-25T04:09:55.091Z,9.60
2019-04-25T04:12:21.674Z,9.70
2019-04-25T04:14:48.055Z,9.60
2019-04-25T04:17:16.316Z,9.60
2019-04-25T04:19:45.227Z,9.60
2019-04-25T04:22:19.394Z,9.70
2019-04-25T04:24:47.673Z,9.70
2019-04-25T04:27:16.484Z,9.70
2019-04-25T04:29:43.263Z,9.80
2019-04-25T04:32:10.485Z,9.70
2019-04-25T04:34:37.116Z,9.80
2019-04-25T04:37:04.636Z,9.90
2019-04-25T04:39:31.102Z,9.90
2019-04-25T04:41:57.671Z,10.00
2019-04-25T04:44:24.231Z,10.10
2019-04-25T04:46:50.637Z,10.10
2019-04-25T04:49:17.197Z,10.10
2019-04-25T04:51:44.412Z,10.10
2019-04-25T04:54:11.035Z,10.20
2019-04-25T04:56:37.448Z,10.10
2019-04-25T04:59:03.948Z,10.10
2019-04-25T05:01:33.697Z,10.20
2019-04-25T05:04:03.868Z,10.20
2019-04-25T05:06:33.728Z,10.30
2019-04-25T05:09:07.778Z,10.40
2019-04-25T05:11:34.169Z,10.40
2019-04-25T05:14:00.544Z,10.50
2019-04-25T05:16:27.000Z,10.50
2019-04-25T05:18:55.295Z,10.50
2019-04-25T05:21:22.507Z,10.60
2019-04-25T05:23:50.225Z,10.60
2019-04-25T05:26:17.158Z,10.70
2019-04-25T05:28:44.890Z,10.70
2019-04-25T05:31:17.240Z,10.80
2019-04-25T05:33:44.242Z,10.90
2019-04-25T05:36:10.678Z,11.00
2019-04-25T05:38:37.142Z,11.10
2019-04-25T05:41:08.351Z,11.20
2019-04-25T05:43:34.720Z,11.20
2019-04-25T05:46:01.186Z,11.30
2019-04-25T05:48:27.620Z,11.40
2019-04-25T05:50:54.024Z,11.40
2019-04-25T05:53:22.395Z,11.50
2019-04-25T05:55:50.026Z,11.70
2019-04-25T05:58:18.649Z,11.70
2019-04-25T06:00:45.168Z,11.80
2019-04-25T06:03:11.620Z,11.90
2019-04-25T06:05:38.273Z,12.00
2019-04-25T06:08:04.906Z,12.20
2019-04-25T06:10:51.078Z,12.40
2019-04-25T06:13:33.228Z,12.50
2019-04-25T06:16:03.456Z,12.60
2019-04-25T06:18:48.297Z,12.80
2019-04-25T06:21:14.722Z,12.90
2019-04-25T06:23:45.796Z,13.00
2019-04-25T06:26:22.892Z,13.10
2019-04-25T06:28:52.016Z,13.20
2019-04-25T06:31:10.370Z,13.40
2019-04-25T06:33:37.161Z,13.90
2019-04-25T06:36:05.406Z,14.80
2019-04-25T06:38:33.369Z,15.30
2019-04-25T06:40:59.890Z,15.70
2019-04-25T06:43:28.531Z,16.30
2019-04-25T06:46:14.892Z,17.00
2019-04-25T06:48:43.343Z,17.30
2019-04-25T06:51:11.533Z,17.60
2019-04-25T06:53:38.008Z,17.30
2019-04-25T06:56:04.580Z,17.30
2019-04-25T06:58:32.301Z,17.70
2019-04-25T07:01:01.056Z,17.70
2019-04-25T07:03:27.784Z,17.90
2019-04-25T07:05:54.357Z,18.20
2019-04-25T07:08:20.884Z,18.60
2019-04-25T07:10:47.505Z,18.60
2019-04-25T07:13:14.230Z,18.40
2019-04-25T07:15:40.802Z,19.10
2019-04-25T07:18:07.349Z,19.90
2019-04-25T07:20:34.610Z,19.60
2019-04-25T07:23:03.619Z,19.60
2019-04-25T07:25:32.159Z,18.90
2019-04-25T07:28:24.352Z,18.90
2019-04-25T07:31:03.665Z,19.20
2019-04-25T07:33:37.982Z,19.10
2019-04-25T07:36:04.435Z,19.40
2019-04-25T07:38:31.125Z,19.60
2019-04-25T07:40:57.741Z,19.40
2019-04-25T07:43:25.786Z,19.50
2019-04-25T07:45:53.519Z,19.10
2019-04-25T07:48:22.651Z,19.50
2019-04-25T07:50:48.745Z,19.50
2019-04-25T07:53:15.307Z,20.00
2019-04-25T07:55:43.258Z,20.30
2019-04-25T07:58:09.883Z,19.30
2019-04-25T08:00:38.184Z,19.40
2019-04-25T08:03:04.667Z,19.50
2019-04-25T08:05:31.420Z,20.00
2019-04-25T08:07:57.885Z,20.10
2019-04-25T08:10:26.203Z,19.90
2019-04-25T08:12:53.616Z,20.00
2019-04-25T08:15:25.192Z,19.90
2019-04-25T08:17:56.720Z,19.80
2019-04-25T08:20:23.849Z,20.10
2019-04-25T08:22:57.115Z,20.20
2019-04-25T08:25:20.746Z,20.00
2019-04-25T08:27:47.349Z,20.20
2019-04-25T08:30:14.102Z,20.20
2019-04-25T08:32:41.505Z,20.60
2019-04-25T08:35:08.175Z,20.50
2019-04-25T08:37:35.636Z,20.80
2019-04-25T08:40:04.964Z,20.20
2019-04-25T08:42:32.232Z,20.40
2019-04-25T08:44:59.411Z,20.30
2019-04-25T08:47:25.769Z,20.20
2019-04-25T08:49:56.720Z,20.60
2019-04-25T08:52:24.332Z,21.30
2019-04-25T08:54:54.311Z,20.90
2019-04-25T08:57:23.647Z,20.80
2019-04-25T08:59:55.662Z,21.60
2019-04-25T09:02:24.017Z,21.20
2019-04-25T09:04:58.078Z,20.90
2019-04-25T09:07:24.667Z,21.00
2019-04-25T09:09:51.013Z,21.60
2019-04-25T09:12:17.708Z,21.80
2019-04-25T09:14:46.306Z,21.80
2019-04-25T09:17:14.186Z,21.90
2019-04-25T09:19:40.760Z,22.00
2019-04-25T09:22:07.234Z,21.80
2019-04-25T09:24:36.267Z,22.00
2019-04-25T09:27:03.301Z,22.00
2019-04-25T09:29:30.206Z,21.80
2019-04-25T09:31:56.813Z,21.50
2019-04-25T09:34:23.827Z,21.80
2019-04-25T09:36:50.295Z,21.20
2019-04-25T09:39:21.557Z,21.40
2019-04-25T09:41:48.318Z,21.50
2019-04-25T09:44:16.712Z,22.20
2019-04-25T09:46:44.135Z,22.20
2019-04-25T09:49:16.312Z,22.10
2019-04-25T09:51:45.715Z,22.50
2019-04-25T09:54:33.400Z,22.20
2019-04-25T09:57:03.663Z,22.00
2019-04-25T09:59:30.277Z,22.10
2019-04-25T10:01:56.869Z,22.50
2019-04-25T10:04:23.503Z,22.30
2019-04-25T10:06:50.078Z,21.60
2019-04-25T10:09:16.689Z,21.40
2019-04-25T10:11:43.961Z,22.00
2019-04-25T10:14:21.234Z,21.60
2019-04-25T10:16:47.848Z,21.40
2019-04-25T10:19:14.299Z,21.80
2019-04-25T10:21:40.812Z,21.80
2019-04-25T10:24:07.836Z,22.20
2019-04-25T10:26:34.960Z,22.10
2019-04-25T10:29:01.605Z,22.00
2019-04-25T10:31:28.189Z,21.90
2019-04-25T10:33:54.726Z,22.20
2019-04-25T10:36:21.288Z,21.70
2019-04-25T10:39:01.976Z,21.40
2019-04-25T10:41:16.580Z,21.70
2019-04-25T10:43:43.973Z,21.20
2019-04-25T10:46:10.926Z,20.60
2019-04-25T10:48:37.819Z,20.40
2019-04-25T10:51:04.399Z,20.50
2019-04-25T10:53:30.993Z,20.40
2019-04-25T10:55:57.579Z,20.30
2019-04-25T10:58:24.054Z,20.00
2019-04-25T11:00:51.401Z,19.40
2019-04-25T11:03:34.999Z,19.20
2019-04-25T11:06:01.597Z,18.60
2019-04-25T11:08:28.275Z,18.40
2019-04-25T11:10:56.528Z,18.20
2019-04-25T11:13:23.025Z,18.20
2019-04-25T11:15:49.771Z,18.10
2019-04-25T11:18:16.895Z,17.80
2019-04-25T11:20:44.677Z,18.10
2019-04-25T11:23:11.201Z,17.90
2019-04-25T11:25:37.874Z,17.90
2019-04-25T11:28:07.613Z,17.70
2019-04-25T11:30:34.175Z,17.50
2019-04-25T11:33:00.721Z,17.20
2019-04-25T11:35:27.100Z,17.10
2019-04-25T11:37:55.485Z,16.60
2019-04-25T11:40:34.548Z,16.30
2019-04-25T11:43:00.970Z,16.00
2019-04-25T11:45:27.579Z,16.00
2019-04-25T11:47:55.260Z,15.80
2019-04-25T11:50:22.315Z,15.60
2019-04-25T11:52:48.922Z,15.50
2019-04-25T11:55:15.938Z,15.60
2019-04-25T11:57:48.301Z,15.50
2019-04-25T12:00:21.455Z,15.40
2019-04-25T12:02:39.959Z,15.40
2019-04-25T12:05:06.650Z,15.20
2019-04-25T12:07:34.210Z,15.10
2019-04-25T12:10:00.874Z,15.10
2019-04-25T12:12:27.351Z,15.20
2019-04-25T12:14:55.252Z,15.40
2019-04-25T12:17:23.741Z,15.40
2019-04-25T12:19:51.140Z,15.40
2019-04-25T12:22:17.660Z,15.40
2019-04-25T12:24:45.393Z,15.40
2019-04-25T12:27:12.281Z,15.30
2019-04-25T12:29:38.973Z,15.40
2019-04-25T12:32:05.720Z,15.30
2019-04-25T12:34:33.814Z,15.30
2019-04-25T12:37:00.478Z,15.30
2019-04-25T12:39:27.070Z,15.20
2019-04-25T12:41:54.535Z,15.30
2019-04-25T12:44:43.466Z,15.30
2019-04-25T12:47:13.523Z,15.20
2019-04-25T12:49:40.129Z,15.20
2019-04-25T12:52:06.818Z,15.30
2019-04-25T12:54:33.984Z,15.10
2019-04-25T12:57:00.656Z,15.00
2019-04-25T12:59:27.877Z,15.00
2019-04-25T13:01:55.010Z,14.90
2019-04-25T13:04:22.250Z,15.00
2019-04-25T13:06:48.860Z,14.90
2019-04-25T13:09:15.354Z,14.90
2019-04-25T13:11:43.361Z,14.80
2019-04-25T13:14:09.913Z,14.50
2019-04-25T13:16:37.534Z,14.70
2019-04-25T13:19:16.754Z,14.70
2019-04-25T13:21:34.377Z,14.80
2019-04-25T13:24:01.004Z,14.80
2019-04-25T13:26:29.642Z,14.80
2019-04-25T13:28:59.023Z,14.80
2019-04-25T13:31:42.302Z,14.70
2019-04-25T13:34:10.734Z,14.90
2019-04-25T13:36:37.083Z,15.00
2019-04-25T13:39:07.775Z,15.00
2019-04-25T13:41:34.261Z,15.40
2019-04-25T13:44:00.957Z,15.50
2019-04-25T13:46:27.766Z,15.30
2019-04-25T13:48:54.420Z,15.10
2019-04-25T13:51:24.148Z,14.90
2019-04-25T13:53:50.883Z,14.90
2019-04-25T13:56:17.510Z,14.90
2019-04-25T13:58:44.412Z,14.90
2019-04-25T14:01:16.899Z,15.00
2019-04-25T14:03:41.132Z,15.20
2019-04-25T14:06:08.742Z,15.20
2019-04-25T14:08:35.136Z,15.20
2019-04-25T14:11:01.650Z,15.20
2019-04-25T14:13:28.354Z,15.20
2019-04-25T14:16:03.525Z,15.40
2019-04-25T14:18:43.502Z,15.30
2019-04-25T14:21:13.254Z,15.30
2019-04-25T14:23:39.695Z,15.40
2019-04-25T14:26:06.668Z,15.40
2019-04-25T14:28:35.384Z,15.20
2019-04-25T14:31:01.745Z,15.10
2019-04-25T14:33:28.704Z,15.00
2019-04-25T14:35:55.169Z,14.90
2019-04-25T14:38:22.688Z,15.00
2019-04-25T14:40:50.002Z,15.00
2019-04-25T14:43:16.489Z,15.10
2019-04-25T14:45:44.957Z,14.80
2019-04-25T14:48:11.265Z,14.60
2019-04-25T14:50:37.644Z,14.60
2019-04-25T14:53:04.147Z,14.60
2019-04-25T14:55:35.135Z,14.70
2019-04-25T14:58:03.395Z,14.70
2019-04-25T15:00:34.525Z,14.70
2019-04-25T15:03:00.999Z,14.40
2019-04-25T15:05:27.516Z,14.30
2019-04-25T15:07:54.005Z,14.30
2019-04-25T15:10:20.689Z,14.20
2019-04-25T15:12:47.166Z,14.00
2019-04-25T15:15:13.777Z,14.00
2019-04-25T15:17:46.362Z,13.90
2019-04-25T15:20:08.687Z,14.00
2019-04-25T15:22:35.046Z,14.00
2019-04-25T15:25:01.555Z,13.70
2019-04-25T15:27:28.017Z,13.70
2019-04-25T15:29:54.700Z,13.60
2019-04-25T15:32:23.100Z,13.60
2019-04-25T15:34:51.389Z,13.50
2019-04-25T15:37:22.736Z,13.50
2019-04-25T15:39:51.092Z,13.50
2019-04-25T15:42:22.282Z,13.50
2019-04-25T15:45:08.595Z,13.60
2019-04-25T15:47:36.125Z,13.50
2019-04-25T15:50:03.555Z,13.40
2019-04-25T15:52:29.919Z,13.50
2019-04-25T15:55:06.400Z,13.60
2019-04-25T15:57:24.747Z,13.50
2019-04-25T15:59:51.208Z,13.50
2019-04-25T16:02:18.421Z,13.40
2019-04-25T16:04:44.881Z,13.40
2019-04-25T16:07:11.808Z,13.50
2019-04-25T16:09:39.240Z,13.50
2019-04-25T16:12:06.728Z,13.50
2019-04-25T16:14:33.412Z,13.50
2019-04-25T16:16:59.944Z,13.70
2019-04-25T16:19:27.215Z,13.70
2019-04-25T16:21:54.736Z,13.80
2019-04-25T16:24:21.334Z,13.90
2019-04-25T16:26:47.699Z,13.90
2019-04-25T16:29:14.406Z,13.90
2019-04-25T16:31:41.198Z,14.00
2019-04-25T16:34:07.724Z,14.00
2019-04-25T16:36:34.110Z,14.00
2019-04-25T16:39:00.693Z,14.00
2019-04-25T16:41:27.588Z,13.90
2019-04-25T16:43:56.782Z,13.80
2019-04-25T16:46:23.654Z,13.90
2019-04-25T16:48:50.118Z,13.90
2019-04-25T16:51:18.589Z,13.90
2019-04-25T16:53:45.220Z,13.80
2019-04-25T16:56:12.016Z,13.80
2019-04-25T16:58:38.655Z,13.80
2019-04-25T17:01:09.892Z,13.90
2019-04-25T17:03:37.714Z,13.90
2019-04-25T17:06:04.275Z,13.90
2019-04-25T17:08:31.034Z,13.90
2019-04-25T17:10:57.535Z,13.80
2019-04-25T17:13:25.913Z,13.80
2019-04-25T17:15:54.298Z,13.80
2019-04-25T17:18:28.352Z,13.80
2019-04-25T17:20:59.229Z,13.80
2019-04-25T17:23:25.995Z,13.70
2019-04-25T17:25:52.607Z,13.70
2019-04-25T17:28:19.366Z,13.60
2019-04-25T17:30:47.770Z,13.70
2019-04-25T17:33:18.981Z,13.80
2019-04-25T17:35:50.207Z,13.70
2019-04-25T17:38:21.558Z,13.70
2019-04-25T17:40:48.210Z,13.70
2019-04-25T17:43:14.901Z,13.70
2019-04-25T17:45:41.749Z,13.80
2019-04-25T17:48:08.101Z,13.80
2019-04-25T17:50:34.573Z,13.80
2019-04-25T17:53:00.967Z,13.80
2019-04-25T17:55:27.479Z,13.70
2019-04-25T17:57:53.782Z,13.70
2019-04-25T18:00:27.677Z,13.80
2019-04-25T18:02:59.044Z,13.90
2019-04-25T18:05:22.196Z,13.70
2019-04-25T18:07:48.583Z,13.60
2019-04-25T18:10:15.076Z,13.60
2019-04-25T18:12:42.213Z,13.60
2019-04-25T18:15:10.714Z,13.50
2019-04-25T18:17:36.990Z,13.50
2019-04-25T18:20:16.077Z,13.40
2019-04-25T18:22:47.009Z,13.30
2019-04-25T18:25:15.381Z,13.30
2019-04-25T18:27:44.300Z,13.20
2019-04-25T18:30:10.855Z,13.20
2019-04-25T18:32:39.232Z,13.20
2019-04-25T18:35:07.832Z,13.10
2019-04-25T18:37:37.169Z,13.00
2019-04-25T18:40:10.298Z,13.00
2019-04-25T18:42:44.248Z,12.90
2019-04-25T18:45:12.737Z,12.80
2019-04-25T18:47:39.223Z,12.80
2019-04-25T18:50:06.043Z,12.70
2019-04-25T18:52:47.033Z,12.60
2019-04-25T18:55:18.437Z,12.70
2019-04-25T18:57:52.507Z,12.60
2019-04-25T19:00:32.813Z,12.60
2019-04-25T19:03:03.724Z,12.50
2019-04-25T19:05:47.263Z,12.50
2019-04-25T19:08:13.817Z,12.50
2019-04-25T19:10:40.768Z,12.50
2019-04-25T19:13:13.029Z,12.50
2019-04-25T19:15:35.398Z,12.40
2019-04-25T19:18:01.857Z,12.50
2019-04-25T19:20:28.470Z,12.40
2019-04-25T19:22:55.030Z,12.40
2019-04-25T19:25:21.518Z,12.30
2019-04-25T19:27:48.865Z,12.20
2019-04-25T19:30:17.359Z,12.30
2019-04-25T19:32:44.888Z,12.20
2019-04-25T19:35:11.655Z,12.20
2019-04-25T19:37:38.217Z,12.20
2019-04-25T19:40:16.123Z,12.10
2019-04-25T19:42:44.535Z,12.10
2019-04-25T19:45:11.024Z,12.00
2019-04-25T19:47:37.286Z,12.00
2019-04-25T19:50:04.595Z,12.10
2019-04-25T19:52:30.859Z,12.10
2019-04-25T19:54:57.323Z,12.10
2019-04-25T19:57:23.826Z,12.10
2019-04-25T19:59:50.703Z,12.20
2019-04-25T20:02:25.898Z,12.20
2019-04-25T20:04:54.322Z,12.20
2019-04-25T20:07:25.621Z,12.10
2019-04-25T20:10:02.698Z,12.10
2019-04-25T20:12:31.088Z,12.10
2019-04-25T20:14:58.856Z,12.10
2019-04-25T20:17:25.282Z,12.00
2019-04-25T20:19:51.909Z,12.10
2019-04-25T20:22:18.396Z,12.10
2019-04-25T20:24:46.238Z,12.00
2019-04-25T20:27:12.900Z,12.00
2019-04-25T20:29:39.298Z,12.00
2019-04-25T20:32:07.248Z,11.90
2019-04-25T20:34:33.802Z,11.90
2019-04-25T20:37:00.200Z,12.00
2019-04-25T20:39:27.822Z,12.00
2019-04-25T20:41:54.432Z,12.00
2019-04-25T20:44:21.006Z,12.00
2019-04-25T20:46:48.422Z,12.00
2019-04-25T20:49:14.891Z,12.00
2019-04-25T20:51:41.469Z,11.90
2019-04-25T20:54:08.073Z,11.80
2019-04-25T20:56:34.577Z,11.70
2019-04-25T20:59:00.969Z,11.70
2019-04-25T21:01:27.582Z,11.60
2019-04-25T21:03:54.108Z,11.60
2019-04-25T21:06:22.464Z,11.50
2019-04-25T21:08:49.056Z,11.40
2019-04-25T21:11:16.455Z,11.40
2019-04-25T21:14:02.759Z,11.40
2019-04-25T21:16:50.417Z,11.30
2019-04-25T21:19:19.638Z,11.30
2019-04-25T21:21:46.268Z,11.30
2019-04-25T21:24:12.653Z,11.20
2019-04-25T21:26:39.053Z,11.10
2019-04-25T21:29:05.663Z,11.10
2019-04-25T21:31:32.083Z,11.10
2019-04-25T21:33:59.430Z,11.10
2019-04-25T21:36:26.275Z,11.20
2019-04-25T21:38:57.547Z,11.20
2019-04-25T21:41:42.936Z,11.10
2019-04-25T21:44:09.610Z,11.10
2019-04-25T21:46:35.978Z,11.10
2019-04-25T21:49:03.142Z,11.10
2019-04-25T21:51:32.595Z,11.00
2019-04-25T21:54:01.390Z,11.00
2019-04-25T21:56:28.330Z,11.00
2019-04-25T21:58:55.627Z,11.00
2019-04-25T22:01:25.048Z,10.90
2019-04-25T22:03:51.765Z,11.00
2019-04-25T22:06:18.580Z,11.00
2019-04-25T22:08:44.946Z,10.90
2019-04-25T22:11:11.576Z,10.80
2019-04-25T22:13:38.069Z,10.80
2019-04-25T22:16:05.862Z,10.90
2019-04-25T22:18:32.651Z,10.80
2019-04-25T22:21:00.156Z,10.80
2019-04-25T22:23:26.723Z,10.70
2019-04-25T22:25:53.354Z,10.70
2019-04-25T22:28:20.390Z,10.70
2019-04-25T22:30:49.077Z,10.70
2019-04-25T22:33:29.482Z,10.70
2019-04-25T22:35:59.216Z,10.70
2019-04-25T22:38:26.400Z,10.70
2019-04-25T22:40:52.793Z,10.70
2019-04-25T22:43:20.045Z,10.60
2019-04-25T22:45:46.816Z,10.60
2019-04-25T22:48:16.228Z,10.70
2019-04-25T22:50:42.894Z,10.70
2019-04-25T22:53:21.036Z,10.60
2019-04-25T22:55:37.707Z,10.70
2019-04-25T22:58:04.226Z,10.60
2019-04-25T23:00:32.581Z,10.60
2019-04-25T23:03:09.854Z,10.60
2019-04-25T23:05:38.126Z,10.60
2019-04-25T23:08:05.821Z,10.50
2019-04-25T23:10:32.395Z,10.50
2019-04-25T23:12:58.668Z,10.50
2019-04-25T23:15:25.145Z,10.50
2019-04-25T23:17:51.876Z,10.40
2019-04-25T23:20:18.585Z,10.40
2019-04-25T23:22:44.930Z,10.40
2019-04-25T23:25:14.228Z,10.40
2019-04-25T23:27:51.400Z,10.40
2019-04-25T23:30:19.909Z,10.50
2019-04-25T23:32:46.376Z,10.40
2019-04-25T23:35:23.458Z,10.40
2019-04-25T23:37:41.166Z,10.40
2019-04-25T23:40:07.785Z,10.40
2019-04-25T23:42:34.274Z,10.30
2019-04-25T23:45:00.906Z,10.40
2019-04-25T23:47:27.283Z,10.40
2019-04-25T23:49:54.006Z,10.30
2019-04-25T23:52:20.878Z,10.40
2019-04-25T23:54:47.382Z,10.40
2019-04-25T23:57:14.300Z,10.30
2019-04-25T23:59:41.820Z,10.40
